sensor_id;sensor_type;location;lat;lon;timestamp;P1;durP1;ratioP1;P2;durP2;ratioP2
33148;SDS011;19506;51.040;3.856;2023-07-20T13:25:22;1.88;;;1.33;;
33148;SDS011;19506;51.040;3.856;2023-07-20T13:27:47;3.58;;;1.48;;
33148;SDS011;19506;51.040;3.856;2023-07-20T13:30:13;4.97;;;1.15;;
33148;SDS011;19506;51.040;3.856;2023-07-20T13:32:42;4.55;;;1.42;;
33148;SDS011;19506;51.040;3.856;2023-07-20T13:35:08;7.97;;;1.40;;
33148;SDS011;19506;51.040;3.856;2023-07-20T13:37:35;6.78;;;0.90;;
33148;SDS011;19506;51.040;3.856;2023-07-20T13:40:01;2.35;;;1.35;;
33148;SDS011;19506;51.040;3.856;2023-07-20T13:42:29;4.55;;;1.30;;
33148;SDS011;19506;51.040;3.856;2023-07-20T13:44:55;5.00;;;1.30;;
33148;SDS011;19506;51.040;3.856;2023-07-20T13:47:21;2.75;;;1.40;;
33148;SDS011;19506;51.040;3.856;2023-07-20T13:49:46;5.88;;;1.55;;
33148;SDS011;19506;51.040;3.856;2023-07-20T13:52:12;2.33;;;1.10;;
33148;SDS011;19506;51.040;3.856;2023-07-20T13:54:37;1.40;;;1.08;;
33148;SDS011;19506;51.040;3.856;2023-07-20T14:00:25;1.33;;;1.00;;
33148;SDS011;19506;51.040;3.856;2023-07-20T14:02:55;2.45;;;1.17;;
33148;SDS011;19506;51.040;3.856;2023-07-20T14:05:21;8.20;;;1.30;;
33148;SDS011;19506;51.040;3.856;2023-07-20T14:07:46;4.63;;;1.20;;
33148;SDS011;19506;51.040;3.856;2023-07-20T14:10:12;6.18;;;1.45;;
33148;SDS011;19506;51.040;3.856;2023-07-20T14:12:38;4.07;;;1.40;;
33148;SDS011;19506;51.040;3.856;2023-07-20T14:15:03;3.90;;;1.08;;
33148;SDS011;19506;51.040;3.856;2023-07-20T14:17:29;1.55;;;1.00;;
33148;SDS011;19506;51.040;3.856;2023-07-20T14:19:55;15.38;;;1.25;;
33148;SDS011;19506;51.040;3.856;2023-07-20T14:22:21;15.32;;;2.25;;
33148;SDS011;19506;51.040;3.856;2023-07-20T14:24:46;1.48;;;1.15;;
33148;SDS011;19506;51.040;3.856;2023-07-20T14:27:12;3.72;;;1.35;;
33148;SDS011;19506;51.040;3.856;2023-07-20T14:29:38;1.48;;;1.25;;
33148;SDS011;19506;51.040;3.856;2023-07-20T14:32:03;4.32;;;0.98;;
33148;SDS011;19506;51.040;3.856;2023-07-20T14:34:31;3.67;;;1.48;;
33148;SDS011;19506;51.040;3.856;2023-07-20T14:36:58;7.88;;;1.65;;
33148;SDS011;19506;51.040;3.856;2023-07-20T14:39:25;7.88;;;1.38;;
33148;SDS011;19506;51.040;3.856;2023-07-20T14:41:50;15.10;;;2.00;;
33148;SDS011;19506;51.040;3.856;2023-07-20T14:44:16;22.98;;;2.15;;
33148;SDS011;19506;51.040;3.856;2023-07-20T14:46:42;7.30;;;1.73;;
33148;SDS011;19506;51.040;3.856;2023-07-20T14:49:08;9.20;;;1.75;;
33148;SDS011;19506;51.040;3.856;2023-07-20T14:51:35;6.38;;;2.55;;
33148;SDS011;19506;51.040;3.856;2023-07-20T14:54:07;3.88;;;1.63;;
33148;SDS011;19506;51.040;3.856;2023-07-20T14:56:33;11.98;;;2.33;;
33148;SDS011;19506;51.040;3.856;2023-07-20T14:58:59;9.50;;;1.67;;
33148;SDS011;19506;51.040;3.856;2023-07-20T15:01:25;6.45;;;1.88;;
33148;SDS011;19506;51.040;3.856;2023-07-20T15:03:51;6.35;;;2.63;;
33148;SDS011;19506;51.040;3.856;2023-07-20T15:06:18;9.32;;;2.53;;
33148;SDS011;19506;51.040;3.856;2023-07-20T15:08:44;7.53;;;3.35;;
33148;SDS011;19506;51.040;3.856;2023-07-20T15:11:10;6.35;;;2.83;;
33148;SDS011;19506;51.040;3.856;2023-07-20T15:13:36;6.13;;;2.40;;
33148;SDS011;19506;51.040;3.856;2023-07-20T15:16:01;6.88;;;3.83;;
33148;SDS011;19506;51.040;3.856;2023-07-20T15:18:27;6.00;;;3.38;;
33148;SDS011;19506;51.040;3.856;2023-07-20T15:20:53;4.97;;;3.45;;
33148;SDS011;19506;51.040;3.856;2023-07-20T15:23:19;8.20;;;3.05;;
33148;SDS011;19506;51.040;3.856;2023-07-20T15:25:45;34.40;;;4.03;;
33148;SDS011;19506;51.040;3.856;2023-07-20T15:28:11;6.03;;;2.95;;
33148;SDS011;19506;51.040;3.856;2023-07-20T15:30:37;5.40;;;2.85;;
33148;SDS011;19506;51.040;3.856;2023-07-20T15:33:02;9.40;;;2.60;;
33148;SDS011;19506;51.040;3.856;2023-07-20T15:35:28;8.85;;;3.10;;
33148;SDS011;19506;51.040;3.856;2023-07-20T15:37:54;6.95;;;2.83;;
33148;SDS011;19506;51.040;3.856;2023-07-20T15:40:19;12.93;;;3.55;;
33148;SDS011;19506;51.040;3.856;2023-07-20T15:42:45;4.97;;;2.80;;
33148;SDS011;19506;51.040;3.856;2023-07-20T15:45:12;5.25;;;3.20;;
33148;SDS011;19506;51.040;3.856;2023-07-20T15:47:38;12.00;;;2.85;;
33148;SDS011;19506;51.040;3.856;2023-07-20T15:50:04;5.50;;;2.00;;
33148;SDS011;19506;51.040;3.856;2023-07-20T15:52:31;16.42;;;2.65;;
33148;SDS011;19506;51.040;3.856;2023-07-20T15:54:56;5.53;;;2.80;;
33148;SDS011;19506;51.040;3.856;2023-07-20T15:57:25;7.93;;;3.05;;
33148;SDS011;19506;51.040;3.856;2023-07-20T15:59:51;15.48;;;2.80;;
33148;SDS011;19506;51.040;3.856;2023-07-20T16:02:17;5.38;;;2.55;;
33148;SDS011;19506;51.040;3.856;2023-07-20T16:04:43;6.95;;;3.33;;
33148;SDS011;19506;51.040;3.856;2023-07-20T16:07:10;3.22;;;2.22;;
33148;SDS011;19506;51.040;3.856;2023-07-20T16:09:36;3.88;;;2.78;;
33148;SDS011;19506;51.040;3.856;2023-07-20T16:12:03;2.75;;;2.42;;
33148;SDS011;19506;51.040;3.856;2023-07-20T16:14:30;8.63;;;4.38;;
33148;SDS011;19506;51.040;3.856;2023-07-20T16:16:56;5.60;;;2.92;;
33148;SDS011;19506;51.040;3.856;2023-07-20T16:19:22;7.03;;;2.75;;
33148;SDS011;19506;51.040;3.856;2023-07-20T16:21:47;4.78;;;3.45;;
33148;SDS011;19506;51.040;3.856;2023-07-20T16:24:13;11.25;;;3.17;;
33148;SDS011;19506;51.040;3.856;2023-07-20T16:26:39;6.15;;;4.15;;
33148;SDS011;19506;51.040;3.856;2023-07-20T16:29:08;7.65;;;4.05;;
33148;SDS011;19506;51.040;3.856;2023-07-20T16:31:37;12.00;;;4.40;;
33148;SDS011;19506;51.040;3.856;2023-07-20T16:34:03;6.45;;;4.00;;
33148;SDS011;19506;51.040;3.856;2023-07-20T16:36:29;6.80;;;4.10;;
33148;SDS011;19506;51.040;3.856;2023-07-20T16:38:57;8.25;;;4.35;;
33148;SDS011;19506;51.040;3.856;2023-07-20T16:41:23;5.50;;;4.20;;
33148;SDS011;19506;51.040;3.856;2023-07-20T16:43:48;9.43;;;5.15;;
33148;SDS011;19506;51.040;3.856;2023-07-20T16:49:41;6.40;;;3.85;;
33148;SDS011;19506;51.040;3.856;2023-07-20T16:54:51;13.00;;;5.43;;
33148;SDS011;19506;51.040;3.856;2023-07-20T16:57:17;5.93;;;3.75;;
33148;SDS011;19506;51.040;3.856;2023-07-20T16:59:44;5.90;;;4.38;;
33148;SDS011;19506;51.040;3.856;2023-07-20T17:02:10;5.93;;;4.47;;
33148;SDS011;19506;51.040;3.856;2023-07-20T17:04:36;9.43;;;3.95;;
33148;SDS011;19506;51.040;3.856;2023-07-20T17:07:01;6.80;;;3.38;;
33148;SDS011;19506;51.040;3.856;2023-07-20T17:09:28;8.40;;;3.10;;
33148;SDS011;19506;51.040;3.856;2023-07-20T17:11:57;7.80;;;2.65;;
33148;SDS011;19506;51.040;3.856;2023-07-20T17:14:23;7.07;;;3.20;;
33148;SDS011;19506;51.040;3.856;2023-07-20T17:16:48;6.68;;;3.10;;
33148;SDS011;19506;51.040;3.856;2023-07-20T17:19:14;7.00;;;3.03;;
33148;SDS011;19506;51.040;3.856;2023-07-20T17:21:40;12.63;;;2.72;;
33148;SDS011;19506;51.040;3.856;2023-07-20T17:24:06;3.88;;;2.47;;
33148;SDS011;19506;51.040;3.856;2023-07-20T17:26:32;9.68;;;2.47;;
33148;SDS011;19506;51.040;3.856;2023-07-20T17:28:57;9.93;;;2.15;;
33148;SDS011;19506;51.040;3.856;2023-07-20T17:31:23;7.53;;;2.22;;
33148;SDS011;19506;51.040;3.856;2023-07-20T17:33:53;5.82;;;3.05;;
33148;SDS011;19506;51.040;3.856;2023-07-20T17:36:19;7.47;;;2.50;;
33148;SDS011;19506;51.040;3.856;2023-07-20T17:38:46;7.07;;;2.30;;
33148;SDS011;19506;51.040;3.856;2023-07-20T17:41:13;4.53;;;2.65;;
33148;SDS011;19506;51.040;3.856;2023-07-20T17:43:39;6.00;;;3.03;;
33148;SDS011;19506;51.040;3.856;2023-07-20T17:46:04;3.78;;;1.88;;
33148;SDS011;19506;51.040;3.856;2023-07-20T17:48:30;6.38;;;2.78;;
33148;SDS011;19506;51.040;3.856;2023-07-20T17:50:56;3.95;;;2.50;;
33148;SDS011;19506;51.040;3.856;2023-07-20T17:53:22;4.13;;;2.40;;
33148;SDS011;19506;51.040;3.856;2023-07-20T17:55:48;4.40;;;2.78;;
33148;SDS011;19506;51.040;3.856;2023-07-20T17:58:14;4.45;;;3.10;;
33148;SDS011;19506;51.040;3.856;2023-07-20T18:00:39;3.95;;;2.15;;
33148;SDS011;19506;51.040;3.856;2023-07-20T18:03:05;3.85;;;2.33;;
33148;SDS011;19506;51.040;3.856;2023-07-20T18:05:31;2.55;;;2.30;;
33148;SDS011;19506;51.040;3.856;2023-07-20T18:07:57;3.40;;;2.22;;
33148;SDS011;19506;51.040;3.856;2023-07-20T18:10:22;6.07;;;2.55;;
33148;SDS011;19506;51.040;3.856;2023-07-20T18:12:48;6.57;;;2.40;;
33148;SDS011;19506;51.040;3.856;2023-07-20T18:15:14;6.97;;;2.33;;
33148;SDS011;19506;51.040;3.856;2023-07-20T18:17:40;7.07;;;2.40;;
33148;SDS011;19506;51.040;3.856;2023-07-20T18:20:06;4.20;;;2.85;;
33148;SDS011;19506;51.040;3.856;2023-07-20T18:22:34;3.92;;;2.72;;
33148;SDS011;19506;51.040;3.856;2023-07-20T18:25:00;5.90;;;3.17;;
33148;SDS011;19506;51.040;3.856;2023-07-20T18:27:26;6.40;;;2.40;;
33148;SDS011;19506;51.040;3.856;2023-07-20T18:29:52;3.70;;;2.45;;
33148;SDS011;19506;51.040;3.856;2023-07-20T18:32:18;5.07;;;2.42;;
33148;SDS011;19506;51.040;3.856;2023-07-20T18:34:44;3.10;;;2.15;;
33148;SDS011;19506;51.040;3.856;2023-07-20T18:37:10;4.03;;;2.10;;
33148;SDS011;19506;51.040;3.856;2023-07-20T18:39:36;7.38;;;3.08;;
33148;SDS011;19506;51.040;3.856;2023-07-20T18:42:02;3.85;;;2.58;;
33148;SDS011;19506;51.040;3.856;2023-07-20T18:44:29;7.22;;;3.03;;
33148;SDS011;19506;51.040;3.856;2023-07-20T18:46:55;6.60;;;3.88;;
33148;SDS011;19506;51.040;3.856;2023-07-20T18:49:23;3.13;;;2.50;;
33148;SDS011;19506;51.040;3.856;2023-07-20T18:51:51;6.72;;;3.08;;
33148;SDS011;19506;51.040;3.856;2023-07-20T18:54:17;3.88;;;3.47;;
33148;SDS011;19506;51.040;3.856;2023-07-20T18:56:43;10.45;;;2.65;;
33148;SDS011;19506;51.040;3.856;2023-07-20T18:59:08;5.82;;;2.20;;
33148;SDS011;19506;51.040;3.856;2023-07-20T19:01:34;5.93;;;2.95;;
33148;SDS011;19506;51.040;3.856;2023-07-20T19:04:00;8.02;;;3.20;;
33148;SDS011;19506;51.040;3.856;2023-07-20T19:06:26;4.82;;;2.63;;
33148;SDS011;19506;51.040;3.856;2023-07-20T19:08:52;12.13;;;3.20;;
33148;SDS011;19506;51.040;3.856;2023-07-20T19:11:18;4.45;;;3.22;;
33148;SDS011;19506;51.040;3.856;2023-07-20T19:13:45;7.63;;;2.75;;
33148;SDS011;19506;51.040;3.856;2023-07-20T19:16:11;7.60;;;3.17;;
33148;SDS011;19506;51.040;3.856;2023-07-20T19:18:37;4.03;;;3.15;;
33148;SDS011;19506;51.040;3.856;2023-07-20T19:21:04;5.28;;;2.00;;
33148;SDS011;19506;51.040;3.856;2023-07-20T19:23:30;6.43;;;2.13;;
33148;SDS011;19506;51.040;3.856;2023-07-20T19:26:07;7.88;;;3.30;;
33148;SDS011;19506;51.040;3.856;2023-07-20T19:28:34;12.07;;;3.17;;
33148;SDS011;19506;51.040;3.856;2023-07-20T19:31:02;4.68;;;3.20;;
33148;SDS011;19506;51.040;3.856;2023-07-20T19:33:30;5.22;;;2.40;;
33148;SDS011;19506;51.040;3.856;2023-07-20T19:35:56;8.48;;;2.13;;
33148;SDS011;19506;51.040;3.856;2023-07-20T19:38:23;6.68;;;2.20;;
33148;SDS011;19506;51.040;3.856;2023-07-20T19:40:49;4.10;;;2.80;;
33148;SDS011;19506;51.040;3.856;2023-07-20T19:43:15;7.22;;;2.67;;
33148;SDS011;19506;51.040;3.856;2023-07-20T19:45:41;3.70;;;2.60;;
33148;SDS011;19506;51.040;3.856;2023-07-20T19:48:07;7.00;;;3.10;;
33148;SDS011;19506;51.040;3.856;2023-07-20T19:50:33;6.93;;;3.22;;
33148;SDS011;19506;51.040;3.856;2023-07-20T19:53:01;3.47;;;2.65;;
33148;SDS011;19506;51.040;3.856;2023-07-20T19:55:27;8.40;;;3.75;;
33148;SDS011;19506;51.040;3.856;2023-07-20T19:57:53;5.25;;;3.40;;
33148;SDS011;19506;51.040;3.856;2023-07-20T20:00:19;7.97;;;3.00;;
33148;SDS011;19506;51.040;3.856;2023-07-20T20:02:45;4.75;;;2.30;;
33148;SDS011;19506;51.040;3.856;2023-07-20T20:05:12;4.75;;;3.42;;
33148;SDS011;19506;51.040;3.856;2023-07-20T20:07:40;5.35;;;3.13;;
33148;SDS011;19506;51.040;3.856;2023-07-20T20:10:06;6.30;;;2.90;;
33148;SDS011;19506;51.040;3.856;2023-07-20T20:12:32;5.53;;;3.88;;
33148;SDS011;19506;51.040;3.856;2023-07-20T20:14:59;4.80;;;2.70;;
33148;SDS011;19506;51.040;3.856;2023-07-20T20:17:25;8.65;;;2.10;;
33148;SDS011;19506;51.040;3.856;2023-07-20T20:19:51;4.68;;;2.63;;
33148;SDS011;19506;51.040;3.856;2023-07-20T20:22:17;7.65;;;1.83;;
33148;SDS011;19506;51.040;3.856;2023-07-20T20:24:43;4.65;;;1.73;;
33148;SDS011;19506;51.040;3.856;2023-07-20T20:27:09;5.30;;;2.35;;
33148;SDS011;19506;51.040;3.856;2023-07-20T20:29:35;8.38;;;2.15;;
33148;SDS011;19506;51.040;3.856;2023-07-20T20:32:02;2.30;;;1.50;;
33148;SDS011;19506;51.040;3.856;2023-07-20T20:34:29;2.92;;;1.80;;
33148;SDS011;19506;51.040;3.856;2023-07-20T20:36:55;5.82;;;1.33;;
33148;SDS011;19506;51.040;3.856;2023-07-20T20:39:22;4.68;;;2.15;;
33148;SDS011;19506;51.040;3.856;2023-07-20T20:41:50;7.47;;;2.13;;
33148;SDS011;19506;51.040;3.856;2023-07-20T20:44:17;7.05;;;1.58;;
33148;SDS011;19506;51.040;3.856;2023-07-20T20:46:48;2.42;;;1.73;;
33148;SDS011;19506;51.040;3.856;2023-07-20T20:49:14;10.13;;;1.73;;
33148;SDS011;19506;51.040;3.856;2023-07-20T20:51:41;7.55;;;2.22;;
33148;SDS011;19506;51.040;3.856;2023-07-20T20:54:10;4.97;;;1.67;;
33148;SDS011;19506;51.040;3.856;2023-07-20T20:56:36;6.95;;;2.25;;
33148;SDS011;19506;51.040;3.856;2023-07-20T20:59:02;9.80;;;2.05;;
33148;SDS011;19506;51.040;3.856;2023-07-20T21:01:28;6.43;;;2.20;;
33148;SDS011;19506;51.040;3.856;2023-07-20T21:03:54;5.47;;;2.10;;
33148;SDS011;19506;51.040;3.856;2023-07-20T21:06:20;3.95;;;1.77;;
33148;SDS011;19506;51.040;3.856;2023-07-20T21:08:46;8.50;;;1.83;;
33148;SDS011;19506;51.040;3.856;2023-07-20T21:11:12;8.02;;;2.20;;
33148;SDS011;19506;51.040;3.856;2023-07-20T21:13:38;9.10;;;1.58;;
33148;SDS011;19506;51.040;3.856;2023-07-20T21:16:03;5.25;;;1.92;;
33148;SDS011;19506;51.040;3.856;2023-07-20T21:18:29;2.65;;;1.77;;
33148;SDS011;19506;51.040;3.856;2023-07-20T21:20:55;8.63;;;1.77;;
33148;SDS011;19506;51.040;3.856;2023-07-20T21:23:21;6.80;;;1.60;;
33148;SDS011;19506;51.040;3.856;2023-07-20T21:25:47;8.32;;;2.55;;
33148;SDS011;19506;51.040;3.856;2023-07-20T21:28:13;5.40;;;2.50;;
33148;SDS011;19506;51.040;3.856;2023-07-20T21:30:39;6.18;;;3.47;;
33148;SDS011;19506;51.040;3.856;2023-07-20T21:33:06;4.03;;;3.10;;
33148;SDS011;19506;51.040;3.856;2023-07-20T21:35:34;9.98;;;2.70;;
33148;SDS011;19506;51.040;3.856;2023-07-20T21:38:00;2.97;;;2.53;;
33148;SDS011;19506;51.040;3.856;2023-07-20T21:40:26;7.38;;;2.45;;
33148;SDS011;19506;51.040;3.856;2023-07-20T21:42:52;5.57;;;2.05;;
33148;SDS011;19506;51.040;3.856;2023-07-20T21:45:18;5.38;;;2.80;;
33148;SDS011;19506;51.040;3.856;2023-07-20T21:47:44;2.70;;;2.25;;
33148;SDS011;19506;51.040;3.856;2023-07-20T21:50:09;5.40;;;2.13;;
33148;SDS011;19506;51.040;3.856;2023-07-20T21:52:35;2.45;;;2.10;;
33148;SDS011;19506;51.040;3.856;2023-07-20T21:55:01;4.45;;;3.05;;
33148;SDS011;19506;51.040;3.856;2023-07-20T21:57:28;3.50;;;2.83;;
33148;SDS011;19506;51.040;3.856;2023-07-20T21:59:53;4.75;;;3.40;;
33148;SDS011;19506;51.040;3.856;2023-07-20T22:02:19;4.95;;;2.83;;
33148;SDS011;19506;51.040;3.856;2023-07-20T22:04:45;19.17;;;2.90;;
33148;SDS011;19506;51.040;3.856;2023-07-20T22:07:11;5.10;;;2.83;;
